Station: Price

  Atmospheric Gas Attenuation - ITU Rec 676-11   --------------- db/100km ---------------
Date Time Temp RH % AH g/m3 Dew Point Wind Direction Speed kph Gust kph Barometer mB Rainfall Since 9am 24GHz 47GHz 76GHz 122GHz 134GHz 241GHz
11 09:00 16.2 82 11.31 13.2 22 1013.1 0 25.3 29.7 49.7 130.8 131.7 455.4
07 09:00 13.4 89 10.35 11.7 6 1013.1 0.1 23.4 28.9 47.3 124.4 122.9 424.1
06 09:00 13.3 96 11.09 12.7 7 1013.1 2 25.0 30.3 50.6 133.2 133.7 461.7
03 09:00 8.9 95 8.32 8.1 7 1013.1 0.4 19.2 26.9 41.1 108.0 100.9 346.6
30 09:00 15 100 12.82 15 13 1013.1 7 28.6 32.8 57.2 150.8 155.9 539.6
29 09:00 11.9 78 8.26 8.2 9 1013.1 0 19.0 25.9 39.4 103.3 96.3 330.7
20 09:00 15 94 12.05 14.1 20 1013.1 0.2 26.9 31.4 53.7 141.5 144.5 499.8
14 09:00 12.8 91 10.19 11.3 4 1013.1 0 23.1 28.9 47.0 123.6 121.6 419.4
13 09:00 12.6 97 10.73 12.2 0 1013.1 0 24.2 29.9 49.4 130.2 129.7 447.6
10 09:00 16.2 87 12 14.1 6 1013.1 0 26.7 30.9 52.7 138.8 141.5 489.6
08 09:00 15.8 81 10.9 12.5 4 1013.1 0 24.4 29.1 48.2 126.8 126.7 437.7
01 09:00 11.7 91 9.52 10.3 13 1013.1 0 21.7 28.1 44.7 117.6 113.8 392.2
30 09:00 13.5 72 8.42 8.5 19 1013.1 0 19.2 25.7 39.2 102.9 96.4 331.4
11 09:00 16.9 82 11.79 13.9 13 1013.1 0 26.2 30.2 51.3 135.1 137.3 474.7
08 09:00 17.6 75 11.25 13.1 2 1013.1 0 25.0 29.1 48.5 127.8 128.5 444.3
19 09:00 18.8 83 13.37 15.9 9 1013.1 0 29.5 32.3 56.8 149.9 156.2 540.9
18 09:00 23.6 79 16.8 19.7 4 1013.1 1 36.4 36.6 68.3 180.5 195.3 678.0
15 09:00 19.6 77 13 15.4 13 1013.1 0.2 28.6 31.4 54.6 144.1 149.3 517.0
08 09:00 23.3 70 14.64 17.5 2 1013.1 0 31.9 32.8 59.0 155.8 164.8 571.5
01 09:00 20 86 14.86 17.6 6 1013.1 0 32.6 34.5 62.6 165.2 175.3 608.0
23 09:00 19.6 50 8.44 8.9 22 1013.1 0 19.0 24.0 36.4 95.5 89.4 307.8
22 09:00 28.1 46 12.58 15.7 15 1013.1 0 27.2 27.8 47.5 125.1 128.5 445.6
21 09:00 23.6 63 13.4 16.2 2 1013.1 0 29.2 30.6 53.6 141.3 147.1 509.8
20 09:00 23.7 90 19.25 22 0 1013.1 0 41.6 41.2 79.7 210.9 232.7 808.0
16 09:00 20.5 86 15.3 18.1 9 1013.1 0 33.5 35.1 64.2 169.5 180.7 626.7
15 09:00 16.4 90 12.56 14.7 11 1013.1 0 27.9 31.8 55.0 145.0 149.3 516.5
08 09:00 19.8 86 14.69 17.5 9 1013.1 0 32.2 34.3 62.0 163.6 173.3 600.8
05 09:00 20 90 15.55 18.4 7 1013.1 0 34.1 35.8 65.7 173.6 185.7 644.0
29 09:00 23.1 93 19.22 21.9 9 1013.1 5 41.6 41.4 80.2 212.2 234.1 812.8
15 09:00 22 87 16.88 19.8 7 1013.1 0 36.7 37.4 70.1 185.4 200.7 696.7
05 09:00 22.8 93 18.9 21.6 26 1013.1 0 41.0 40.9 79.0 208.9 229.9 798.3
03 09:00 19 95 15.48 18.2 9 1013.1 0 34.0 36.1 66.3 175.1 187.1 648.8

Last Refresh: 15-Jun-2024 00:25:38

Bureau of Meteorology